Time;durP1;ratioP1;P1;durP2;ratioP2;P2;SDS_P1;SDS_P2;PMS_P1;PMS_P2;Temp;Humidity;BMP_temperature;BMP_pressure;BME280_temperature;BME280_humidity;BME280_pressure;Samples;Min_cycle;Max_cycle;Signal;HPM_P1;HPM_P2
2022/03/14 00:01:49;;;;;;;;;;;;;;;7.06;38.10;93002.03;2038055;70;20141;-73
2022/03/14 00:04:15;;;;;;;;;;;;;;;7.00;38.16;92999.47;2038217;70;20048;-73
2022/03/14 00:06:40;;;;;;;;;;;;;;;6.83;40.18;93007.94;2038132;70;20044;-73
2022/03/14 00:09:07;;;;;;;;;;;;;;;6.77;39.15;93001.84;2038457;70;20080;-74
2022/03/14 00:11:35;;;;;;;;;;;;;;;6.90;39.52;93007.09;2040575;70;20064;-74
2022/03/14 00:14:06;;;;;;;;;;;;;;;7.04;39.47;93011.00;2038062;70;20180;-74
2022/03/14 00:16:41;;;;;;;;;;;;;;;6.96;39.32;93012.41;2037714;70;20051;-74
2022/03/14 00:19:07;;;;;;;;;;;;;;;6.86;41.08;93015.16;2040173;70;20059;-73
2022/03/14 00:21:33;;;;;;;;;;;;;;;7.07;39.47;93021.03;2040013;70;20051;-74
2022/03/14 00:23:59;;;;;;;;;;;;;;;6.99;40.06;93020.41;2037763;70;20060;-73
2022/03/14 00:26:26;;;;;;;;;;;;;;;6.58;40.95;93024.81;2037883;70;20048;-73
2022/03/14 00:28:53;;;;;;;;;;;;;;;6.99;39.09;93017.59;2037999;70;20525;-74
2022/03/14 00:31:20;;;;;;;;;;;;;;;6.91;40.51;93025.34;2037164;70;20048;-74
2022/03/14 00:33:47;;;;;;;;;;;;;;;6.85;40.44;93025.59;2040037;70;20047;-72
2022/03/14 00:36:14;;;;;;;;;;;;;;;6.71;40.63;93023.75;2037406;70;20071;-72
2022/03/14 00:38:40;;;;;;;;;;;;;;;6.81;40.93;93025.28;2037739;70;20489;-73
2022/03/14 00:41:06;;;;;;;;;;;;;;;6.70;42.04;93025.81;2037648;70;20058;-72
2022/03/14 00:43:31;;;;;;;;;;;;;;;6.82;41.30;93028.81;2037782;70;20048;-73
2022/03/14 00:45:57;;;;;;;;;;;;;;;6.89;40.30;93033.59;2037656;70;20048;-72
2022/03/14 00:48:23;;;;;;;;;;;;;;;6.96;40.53;93029.94;2037652;70;20516;-73
2022/03/14 00:50:49;;;;;;;;;;;;;;;6.63;41.83;93038.56;2039909;70;20055;-73
2022/03/14 00:53:16;;;;;;;;;;;;;;;6.79;40.38;93030.72;2037602;70;20056;-72
2022/03/14 00:55:41;;;;;;;;;;;;;;;7.02;39.57;93036.03;2037645;70;20063;-73
2022/03/14 00:58:16;;;;;;;;;;;;;;;6.97;40.30;93022.31;2037877;70;20054;-71
2022/03/14 01:00:42;;;;;;;;;;;;;;;7.02;39.08;93032.50;2037598;70;20083;-72
2022/03/14 01:03:08;;;;;;;;;;;;;;;7.10;39.69;93041.53;2037715;70;20052;-72
2022/03/14 01:05:33;;;;;;;;;;;;;;;6.78;41.12;93051.66;2037960;70;20071;-72
2022/03/14 01:08:06;;;;;;;;;;;;;;;6.86;39.32;93054.34;2037629;70;20143;-73
2022/03/14 01:10:32;;;;;;;;;;;;;;;6.56;41.60;93055.44;2037970;70;20140;-72
2022/03/14 01:12:58;;;;;;;;;;;;;;;6.64;41.40;93070.06;2037910;70;20036;-73
2022/03/14 01:15:24;;;;;;;;;;;;;;;6.62;43.19;93081.09;2037934;70;20059;-72
2022/03/14 01:17:49;;;;;;;;;;;;;;;6.76;41.28;93095.50;2037990;70;20509;-72
2022/03/14 01:20:16;;;;;;;;;;;;;;;6.77;41.96;93094.91;2037861;70;20131;-73
2022/03/14 01:22:42;;;;;;;;;;;;;;;6.72;41.37;93090.31;2037764;70;20143;-73
2022/03/14 01:25:08;;;;;;;;;;;;;;;6.71;41.41;93086.03;2037667;70;20079;-73
2022/03/14 01:27:35;;;;;;;;;;;;;;;6.79;40.94;93089.50;2039717;70;20167;-73
2022/03/14 01:30:00;;;;;;;;;;;;;;;6.74;39.64;93084.16;2037596;70;20052;-73
2022/03/14 01:32:26;;;;;;;;;;;;;;;6.77;40.06;93078.13;2037577;70;20039;-74
2022/03/14 01:34:52;;;;;;;;;;;;;;;6.70;41.55;93070.56;2037752;70;20044;-73
2022/03/14 01:37:19;;;;;;;;;;;;;;;6.72;40.48;93062.34;2037798;70;20159;-73
2022/03/14 01:39:45;;;;;;;;;;;;;;;6.61;39.92;93065.66;2037407;70;20417;-72
2022/03/14 01:42:17;;;;;;;;;;;;;;;6.61;40.81;93068.44;2037733;70;20055;-73
2022/03/14 01:44:43;;;;;;;;;;;;;;;6.56;41.69;93067.38;2037693;70;20040;-72
2022/03/14 01:47:08;;;;;;;;;;;;;;;6.45;42.21;93061.53;2037466;70;20151;-71
2022/03/14 01:49:35;;;;;;;;;;;;;;;6.41;42.35;93067.50;2037086;70;20412;-72
2022/03/14 01:52:05;;;;;;;;;;;;;;;6.52;41.66;93086.63;2037559;70;20536;-74
2022/03/14 01:54:31;;;;;;;;;;;;;;;6.44;42.86;93079.63;2037563;70;20051;-73
2022/03/14 01:56:57;;;;;;;;;;;;;;;6.47;42.11;93089.66;2037501;70;20112;-73
2022/03/14 01:59:23;;;;;;;;;;;;;;;6.43;42.86;93097.72;2037258;70;20135;-73
2022/03/14 02:01:49;;;;;;;;;;;;;;;6.26;42.64;93104.75;2037518;70;20091;-73
2022/03/14 02:04:18;;;;;;;;;;;;;;;6.34;42.71;93108.25;2037597;70;20088;-72
2022/03/14 02:06:46;;;;;;;;;;;;;;;6.21;43.17;93111.34;2037561;70;20185;-72
2022/03/14 02:09:12;;;;;;;;;;;;;;;6.17;43.39;93107.47;2037546;70;20063;-73
2022/03/14 02:11:38;;;;;;;;;;;;;;;6.10;43.33;93120.22;2037764;70;20063;-73
2022/03/14 02:14:06;;;;;;;;;;;;;;;6.18;42.46;93117.31;2037543;70;20048;-72
2022/03/14 02:16:31;;;;;;;;;;;;;;;6.04;43.45;93111.28;2037566;70;20048;-72
2022/03/14 02:18:57;;;;;;;;;;;;;;;5.94;43.41;93108.41;2037477;70;20138;-72
2022/03/14 02:21:22;;;;;;;;;;;;;;;6.16;42.42;93111.59;2037937;70;20048;-72
2022/03/14 02:23:48;;;;;;;;;;;;;;;6.27;41.93;93125.06;2037992;70;20052;-72
2022/03/14 02:26:13;;;;;;;;;;;;;;;6.17;42.86;93124.25;2040225;70;20059;-72
2022/03/14 02:28:39;;;;;;;;;;;;;;;6.16;42.94;93128.34;2040115;70;20068;-73
2022/03/14 02:31:04;;;;;;;;;;;;;;;6.16;42.15;93125.56;2037806;70;20052;-72
2022/03/14 02:33:30;;;;;;;;;;;;;;;5.98;41.76;93133.16;2040298;70;20063;-73
2022/03/14 02:35:56;;;;;;;;;;;;;;;5.84;42.58;93144.59;2040512;70;20142;-73
2022/03/14 02:38:21;;;;;;;;;;;;;;;5.81;44.22;93145.72;2038474;70;20466;-73
2022/03/14 02:40:48;;;;;;;;;;;;;;;5.92;44.02;93149.41;2038299;70;20055;-73
2022/03/14 02:43:18;;;;;;;;;;;;;;;5.88;44.56;93155.38;2038306;70;20077;-73
2022/03/14 02:45:45;;;;;;;;;;;;;;;5.68;44.24;93164.81;2038128;70;20079;-73
2022/03/14 02:48:12;;;;;;;;;;;;;;;5.73;45.60;93161.06;2038318;70;20139;-73
2022/03/14 02:50:41;;;;;;;;;;;;;;;5.87;45.13;93159.47;2038249;70;20131;-73
2022/03/14 02:53:06;;;;;;;;;;;;;;;5.84;45.16;93155.03;2037744;70;20047;-73
2022/03/14 02:55:32;;;;;;;;;;;;;;;5.99;43.19;93157.00;2038294;70;20198;-73
2022/03/14 02:57:59;;;;;;;;;;;;;;;5.13;46.28;93168.44;2038281;70;20050;-74
2022/03/14 03:00:24;;;;;;;;;;;;;;;5.52;45.68;93156.53;2038078;70;20075;-73
2022/03/14 03:02:50;;;;;;;;;;;;;;;5.62;45.04;93170.63;2038293;70;20051;-74
2022/03/14 03:05:16;;;;;;;;;;;;;;;5.60;45.05;93167.66;2038257;70;20222;-73
2022/03/14 03:07:42;;;;;;;;;;;;;;;5.72;44.69;93165.16;2038390;70;20050;-73
2022/03/14 03:10:08;;;;;;;;;;;;;;;5.78;43.54;93155.25;2038240;70;20058;-73
2022/03/14 03:12:35;;;;;;;;;;;;;;;5.72;44.10;93168.69;2038390;70;20162;-73
2022/03/14 03:15:01;;;;;;;;;;;;;;;5.55;44.65;93177.00;2037286;70;20071;-73
2022/03/14 03:17:26;;;;;;;;;;;;;;;5.48;44.58;93181.31;2037746;70;20095;-73
2022/03/14 03:19:52;;;;;;;;;;;;;;;5.33;45.41;93189.75;2038238;70;20048;-73
2022/03/14 03:22:18;;;;;;;;;;;;;;;5.42;44.06;93199.59;2038343;70;20521;-73
2022/03/14 03:24:43;;;;;;;;;;;;;;;5.46;44.78;93194.38;2038259;70;20103;-73
2022/03/14 03:27:09;;;;;;;;;;;;;;;5.41;44.55;93189.72;2040444;70;20052;-74
2022/03/14 03:29:35;;;;;;;;;;;;;;;5.63;43.50;93197.22;2038065;70;20056;-73
2022/03/14 03:32:00;;;;;;;;;;;;;;;5.67;43.08;93192.00;2038419;70;20095;-73
2022/03/14 03:34:25;;;;;;;;;;;;;;;5.20;45.71;93199.09;2038297;70;20412;-73
2022/03/14 03:36:51;;;;;;;;;;;;;;;5.20;45.90;93195.59;2038208;70;20051;-74
2022/03/14 03:39:16;;;;;;;;;;;;;;;5.25;45.59;93191.84;2038216;70;20044;-74
2022/03/14 03:41:42;;;;;;;;;;;;;;;5.08;45.19;93195.25;2037329;70;20040;-74
2022/03/14 03:44:07;;;;;;;;;;;;;;;5.12;44.36;93201.19;2038105;70;20058;-75
2022/03/14 03:46:34;;;;;;;;;;;;;;;5.36;42.66;93202.59;2038230;70;20070;-74
2022/03/14 03:49:01;;;;;;;;;;;;;;;5.02;45.19;93198.25;2038184;70;20059;-74
2022/03/14 03:51:26;;;;;;;;;;;;;;;5.29;43.47;93211.75;2038196;70;20052;-74
2022/03/14 03:53:52;;;;;;;;;;;;;;;5.14;43.96;93220.91;2038188;70;20048;-74
2022/03/14 03:56:17;;;;;;;;;;;;;;;5.16;44.59;93228.72;2040451;70;20120;-74
2022/03/14 03:58:42;;;;;;;;;;;;;;;5.23;44.44;93233.53;2038200;70;20139;-74
2022/03/14 04:01:08;;;;;;;;;;;;;;;4.30;47.70;93232.91;2038045;70;20147;-74
2022/03/14 04:03:35;;;;;;;;;;;;;;;4.85;44.50;93215.56;2038323;70;20488;-74
2022/03/14 04:06:01;;;;;;;;;;;;;;;4.89;45.54;93231.19;2038158;70;20095;-74
2022/03/14 04:08:32;;;;;;;;;;;;;;;4.74;46.25;93238.28;2038177;70;20091;-74
2022/03/14 04:10:58;;;;;;;;;;;;;;;4.85;45.39;93235.09;2040384;70;20520;-74
2022/03/14 04:13:26;;;;;;;;;;;;;;;4.70;45.52;93242.75;2037592;70;20072;-74
2022/03/14 04:15:53;;;;;;;;;;;;;;;4.24;46.68;93248.34;2038056;70;20056;-73
2022/03/14 04:18:20;;;;;;;;;;;;;;;4.33;46.88;93245.00;2038185;70;20138;-74
2022/03/14 04:20:46;;;;;;;;;;;;;;;4.61;44.82;93246.88;2034847;70;20060;-74
2022/03/14 04:23:11;;;;;;;;;;;;;;;4.87;43.71;93244.97;2040307;70;20059;-74
2022/03/14 04:25:38;;;;;;;;;;;;;;;4.80;45.01;93236.03;2038172;70;20040;-74
2022/03/14 04:28:06;;;;;;;;;;;;;;;4.77;44.79;93237.19;2040440;70;20469;-74
2022/03/14 04:30:32;;;;;;;;;;;;;;;4.72;45.28;93251.31;2037516;70;20078;-74
2022/03/14 04:32:58;;;;;;;;;;;;;;;4.58;45.83;93245.19;2038171;70;20040;-74
2022/03/14 04:35:23;;;;;;;;;;;;;;;4.43;46.28;93254.31;2038071;70;20512;-74
2022/03/14 04:37:49;;;;;;;;;;;;;;;4.45;46.08;93257.28;2038129;70;20091;-73
2022/03/14 04:40:14;;;;;;;;;;;;;;;4.64;44.13;93265.28;2040278;70;20048;-73
2022/03/14 04:42:41;;;;;;;;;;;;;;;4.34;46.65;93275.13;2037947;70;20087;-74
2022/03/14 04:45:06;;;;;;;;;;;;;;;4.29;46.96;93276.03;2037960;70;20100;-74
2022/03/14 04:47:32;;;;;;;;;;;;;;;4.01;47.66;93281.75;2038231;70;20504;-74
2022/03/14 04:49:58;;;;;;;;;;;;;;;4.17;46.67;93286.06;2037528;70;20501;-74
2022/03/14 04:52:27;;;;;;;;;;;;;;;4.26;46.85;93295.91;2038066;70;20207;-74
2022/03/14 04:54:53;;;;;;;;;;;;;;;4.25;46.84;93303.53;2038112;70;20056;-74
2022/03/14 04:57:19;;;;;;;;;;;;;;;4.27;47.09;93306.53;2038039;70;20055;-75
2022/03/14 04:59:45;;;;;;;;;;;;;;;3.99;47.02;93318.56;2039991;70;20182;-74
2022/03/14 05:02:10;;;;;;;;;;;;;;;4.02;47.24;93325.03;2038136;70;20436;-74
2022/03/14 05:04:37;;;;;;;;;;;;;;;4.12;46.67;93317.63;2037924;70;20424;-74
2022/03/14 05:07:07;;;;;;;;;;;;;;;4.25;45.59;93323.03;2037939;70;20040;-74
2022/03/14 05:09:33;;;;;;;;;;;;;;;4.15;45.07;93330.47;2038010;70;20140;-74
2022/03/14 05:11:59;;;;;;;;;;;;;;;4.25;44.44;93336.97;2038021;70;20134;-74
2022/03/14 05:14:24;;;;;;;;;;;;;;;4.15;46.00;93327.69;2037935;70;20052;-74
2022/03/14 05:16:50;;;;;;;;;;;;;;;4.12;46.76;93341.97;2038121;70;20074;-74
2022/03/14 05:19:15;;;;;;;;;;;;;;;4.02;47.17;93338.97;2040215;70;20142;-74
2022/03/14 05:21:40;;;;;;;;;;;;;;;3.78;48.17;93340.94;2040191;70;20059;-73
2022/03/14 05:24:07;;;;;;;;;;;;;;;3.91;47.34;93336.53;2038099;70;20469;-73
2022/03/14 05:26:34;;;;;;;;;;;;;;;4.01;46.69;93345.84;2038010;70;20082;-74
2022/03/14 05:28:59;;;;;;;;;;;;;;;3.50;49.16;93355.66;2037934;70;20495;-74
2022/03/14 05:31:25;;;;;;;;;;;;;;;3.97;47.53;93357.34;2040179;70;20059;-74
2022/03/14 05:33:50;;;;;;;;;;;;;;;3.87;47.44;93356.38;2037929;70;20131;-74
2022/03/14 05:36:16;;;;;;;;;;;;;;;3.92;47.62;93372.19;2040184;70;20086;-74
2022/03/14 05:38:44;;;;;;;;;;;;;;;3.73;48.66;93371.75;2037972;70;20098;-74
2022/03/14 05:41:11;;;;;;;;;;;;;;;3.86;47.16;93379.97;2037966;70;20499;-73
2022/03/14 05:43:37;;;;;;;;;;;;;;;3.19;49.80;93376.28;2038026;70;20043;-74
2022/03/14 05:46:06;;;;;;;;;;;;;;;3.59;49.56;93389.88;2037841;70;20060;-74
2022/03/14 05:48:35;;;;;;;;;;;;;;;3.66;48.06;93394.72;2037929;70;20120;-73
2022/03/14 05:51:02;;;;;;;;;;;;;;;3.84;47.45;93390.91;2037917;70;20052;-73
2022/03/14 05:53:28;;;;;;;;;;;;;;;3.86;47.05;93402.25;2038116;70;20052;-73
2022/03/14 05:55:53;;;;;;;;;;;;;;;3.71;47.76;93414.06;2037914;70;20151;-73
2022/03/14 05:58:19;;;;;;;;;;;;;;;3.65;48.00;93415.50;2038433;70;20505;-73
2022/03/14 06:00:48;;;;;;;;;;;;;;;3.71;47.66;93418.88;2038248;70;20154;-73
2022/03/14 06:03:14;;;;;;;;;;;;;;;3.76;47.00;93421.53;2040594;70;20155;-73
2022/03/14 06:05:40;;;;;;;;;;;;;;;4.03;45.90;93419.25;2038378;70;20481;-73
2022/03/14 06:08:05;;;;;;;;;;;;;;;3.88;47.02;93421.94;2038514;70;20044;-74
2022/03/14 06:10:32;;;;;;;;;;;;;;;3.87;47.02;93422.50;2038515;70;20070;-74
2022/03/14 06:12:58;;;;;;;;;;;;;;;3.99;46.24;93427.22;2038416;70;20115;-74
2022/03/14 06:15:24;;;;;;;;;;;;;;;3.93;46.08;93428.66;2037743;70;20444;-74
2022/03/14 06:17:49;;;;;;;;;;;;;;;4.00;46.00;93439.09;2038246;70;20489;-73
2022/03/14 06:20:15;;;;;;;;;;;;;;;3.83;47.56;93453.50;2038487;70;20144;-73
2022/03/14 06:22:41;;;;;;;;;;;;;;;3.56;49.06;93450.16;2038387;70;20565;-74
2022/03/14 06:25:07;;;;;;;;;;;;;;;3.69;49.19;93460.47;2037781;70;20123;-74
2022/03/14 06:27:33;;;;;;;;;;;;;;;3.81;47.84;93467.22;2038357;70;20044;-74
2022/03/14 06:29:59;;;;;;;;;;;;;;;3.76;48.04;93479.28;2038316;70;20552;-74
2022/03/14 06:32:24;;;;;;;;;;;;;;;3.80;48.47;93483.19;2038240;70;20044;-73
2022/03/14 06:34:50;;;;;;;;;;;;;;;3.86;48.03;93477.47;2038348;70;20409;-74
2022/03/14 06:37:16;;;;;;;;;;;;;;;3.94;47.62;93481.03;2038261;70;20465;-74
2022/03/14 06:39:41;;;;;;;;;;;;;;;4.17;45.49;93478.38;2038276;70;20056;-73
2022/03/14 06:42:12;;;;;;;;;;;;;;;4.18;45.56;93473.53;2038336;70;20048;-75
2022/03/14 06:44:39;;;;;;;;;;;;;;;4.35;44.83;93479.34;2040335;70;20084;-73
2022/03/14 06:47:08;;;;;;;;;;;;;;;4.38;45.21;93478.25;2038429;70;20154;-73
2022/03/14 06:49:35;;;;;;;;;;;;;;;4.40;45.14;93484.03;2038428;70;20504;-73
2022/03/14 06:52:01;;;;;;;;;;;;;;;4.43;44.49;93496.88;2038307;70;20067;-73
2022/03/14 06:54:26;;;;;;;;;;;;;;;4.37;44.88;93493.50;2038247;70;20420;-72
2022/03/14 06:56:51;;;;;;;;;;;;;;;4.49;44.68;93505.06;2038238;70;20048;-73
2022/03/14 06:59:17;;;;;;;;;;;;;;;4.59;44.26;93492.84;2040453;70;20048;-73
2022/03/14 07:01:43;;;;;;;;;;;;;;;4.57;43.54;93495.44;2038178;70;20552;-72
2022/03/14 07:04:09;;;;;;;;;;;;;;;4.44;45.07;93494.81;2037959;70;20052;-72
2022/03/14 07:06:35;;;;;;;;;;;;;;;4.50;44.79;93498.22;2039705;70;20040;-73
2022/03/14 07:09:01;;;;;;;;;;;;;;;4.58;45.36;93502.50;2037786;70;20095;-73
2022/03/14 07:11:26;;;;;;;;;;;;;;;4.54;45.50;93501.38;2040148;70;20152;-73
2022/03/14 07:13:54;;;;;;;;;;;;;;;4.53;45.10;93514.56;2037441;70;20079;-73
2022/03/14 07:16:20;;;;;;;;;;;;;;;4.57;44.61;93517.72;2037734;70;20052;-73
2022/03/14 07:18:46;;;;;;;;;;;;;;;4.81;44.09;93518.56;2037715;70;20136;-72
2022/03/14 07:21:12;;;;;;;;;;;;;;;4.71;44.42;93523.19;2038102;70;20055;-73
2022/03/14 07:23:38;;;;;;;;;;;;;;;4.70;44.57;93527.28;2040409;70;20052;-73
2022/03/14 07:26:03;;;;;;;;;;;;;;;4.78;44.74;93537.16;2038236;70;20068;-73
2022/03/14 07:28:29;;;;;;;;;;;;;;;4.62;45.67;93529.28;2038229;70;20040;-73
2022/03/14 07:30:54;;;;;;;;;;;;;;;4.69;45.55;93537.69;2038122;70;20055;-73
2022/03/14 07:33:21;;;;;;;;;;;;;;;4.82;44.71;93540.34;2038179;70;20105;-72
2022/03/14 07:35:48;;;;;;;;;;;;;;;4.72;45.96;93541.41;2037684;70;20048;-74
2022/03/14 07:38:13;;;;;;;;;;;;;;;4.79;44.13;93537.91;2038245;70;20558;-73
2022/03/14 07:40:39;;;;;;;;;;;;;;;4.84;45.59;93543.31;2038187;70;20094;-72
2022/03/14 07:43:04;;;;;;;;;;;;;;;4.98;43.16;93545.94;2038333;70;20107;-72
2022/03/14 07:45:30;;;;;;;;;;;;;;;4.97;44.44;93553.56;2038069;70;20048;-73
2022/03/14 07:47:57;;;;;;;;;;;;;;;5.21;42.47;93554.38;2038314;70;20083;-73
2022/03/14 07:50:23;;;;;;;;;;;;;;;5.00;44.12;93555.28;2038164;70;20044;-73
2022/03/14 07:52:49;;;;;;;;;;;;;;;4.84;44.82;93554.47;2038178;70;20055;-73
2022/03/14 07:55:15;;;;;;;;;;;;;;;5.11;43.36;93559.75;2040283;70;20052;-73
2022/03/14 07:57:41;;;;;;;;;;;;;;;5.48;44.23;93566.69;2038160;70;20078;-73
2022/03/14 08:00:08;;;;;;;;;;;;;;;5.77;45.45;93575.69;2038019;70;20094;-73
2022/03/14 08:02:40;;;;;;;;;;;;;;;6.31;44.20;93570.78;2038172;70;20044;-74
2022/03/14 08:05:07;;;;;;;;;;;;;;;6.26;44.96;93566.13;2037544;70;20059;-74
2022/03/14 08:07:33;;;;;;;;;;;;;;;6.73;42.25;93580.75;2038095;70;20572;-73
2022/03/14 08:09:58;;;;;;;;;;;;;;;7.34;42.54;93583.28;2038191;70;20040;-74
2022/03/14 08:12:24;;;;;;;;;;;;;;;7.47;43.21;93583.03;2037333;70;20075;-73
2022/03/14 08:14:49;;;;;;;;;;;;;;;7.69;41.48;93584.19;2038092;70;20106;-74
2022/03/14 08:17:16;;;;;;;;;;;;;;;7.92;41.71;93588.88;2037880;70;20055;-74
2022/03/14 08:19:41;;;;;;;;;;;;;;;8.90;41.52;93578.81;2038099;70;20043;-74
2022/03/14 08:22:08;;;;;;;;;;;;;;;9.21;39.71;93588.91;2038088;70;20066;-74
2022/03/14 08:24:33;;;;;;;;;;;;;;;9.32;38.68;93585.59;2038208;70;20610;-74
2022/03/14 08:26:59;;;;;;;;;;;;;;;9.68;38.40;93584.91;2034579;70;20051;-73
2022/03/14 08:29:24;;;;;;;;;;;;;;;10.18;38.04;93593.72;2037925;70;20111;-74
2022/03/14 08:31:52;;;;;;;;;;;;;;;10.48;36.96;93591.00;2038174;70;20049;-76
2022/03/14 08:34:18;;;;;;;;;;;;;;;11.52;36.79;93604.97;2034503;70;20055;-78
2022/03/14 08:36:43;;;;;;;;;;;;;;;12.65;33.77;93602.22;2037210;70;20661;-75
2022/03/14 08:39:10;;;;;;;;;;;;;;;11.73;35.42;93600.75;2038060;70;20048;-74
2022/03/14 08:41:36;;;;;;;;;;;;;;;12.03;35.24;93610.66;2038096;70;20047;-77
2022/03/14 08:44:04;;;;;;;;;;;;;;;11.85;35.39;93616.50;2037167;70;20051;-78
2022/03/14 08:46:30;;;;;;;;;;;;;;;12.49;33.97;93615.97;2037537;70;20036;-77
2022/03/14 08:48:56;;;;;;;;;;;;;;;12.20;33.23;93619.66;2038114;70;20139;-77
2022/03/14 08:51:24;;;;;;;;;;;;;;;12.76;33.31;93617.75;2038082;70;20048;-76
2022/03/14 08:53:50;;;;;;;;;;;;;;;12.48;31.18;93614.50;2038038;70;20048;-76
2022/03/14 08:56:16;;;;;;;;;;;;;;;13.02;31.20;93618.78;2040385;70;20084;-76
2022/03/14 08:58:42;;;;;;;;;;;;;;;13.44;30.49;93615.94;2037953;70;20502;-77
2022/03/14 09:01:10;;;;;;;;;;;;;;;13.94;31.79;93614.88;2037929;70;20083;-76
2022/03/14 09:03:36;;;;;;;;;;;;;;;14.79;30.27;93612.97;2040307;70;20060;-79
2022/03/14 09:06:02;;;;;;;;;;;;;;;15.65;28.25;93630.03;2037945;70;20055;-78
2022/03/14 09:08:28;;;;;;;;;;;;;;;15.43;28.32;93623.78;2038017;70;20143;-77
2022/03/14 09:10:55;;;;;;;;;;;;;;;15.61;27.29;93626.19;2038051;70;20111;-77
2022/03/14 09:13:21;;;;;;;;;;;;;;;16.32;27.89;93629.44;2037991;70;20058;-77
2022/03/14 09:15:48;;;;;;;;;;;;;;;16.65;26.09;93621.28;2037947;70;20060;-75
2022/03/14 09:18:14;;;;;;;;;;;;;;;16.83;26.24;93627.22;2039317;70;20515;-77
2022/03/14 09:20:40;;;;;;;;;;;;;;;16.72;26.36;93616.69;2042403;70;20496;-79
2022/03/14 09:23:06;;;;;;;;;;;;;;;17.44;25.92;93612.53;2040192;70;20071;-77
2022/03/14 09:25:32;;;;;;;;;;;;;;;17.17;25.49;93614.03;2038043;70;20044;-77
2022/03/14 09:27:58;;;;;;;;;;;;;;;16.71;25.35;93618.03;2038154;70;20048;-77
2022/03/14 09:30:24;;;;;;;;;;;;;;;16.62;25.54;93625.38;2040527;70;20497;-77
2022/03/14 09:32:51;;;;;;;;;;;;;;;17.25;24.50;93619.41;2038606;70;20505;-77
2022/03/14 09:35:17;;;;;;;;;;;;;;;18.11;24.70;93618.66;2038490;70;20135;-76
2022/03/14 09:37:43;;;;;;;;;;;;;;;18.19;24.84;93609.75;2038477;70;20140;-76
2022/03/14 09:40:10;;;;;;;;;;;;;;;18.75;24.63;93617.38;2037652;70;20056;-77
2022/03/14 09:42:39;;;;;;;;;;;;;;;19.80;22.14;93611.91;2040634;70;20052;-76
2022/03/14 09:45:14;;;;;;;;;;;;;;;18.88;23.99;93627.22;2038463;70;20178;-76
2022/03/14 09:47:41;;;;;;;;;;;;;;;19.91;21.37;93615.88;2038430;70;20175;-74
2022/03/14 09:50:09;;;;;;;;;;;;;;;19.46;22.13;93616.88;2038416;70;20060;-75
2022/03/14 09:52:39;;;;;;;;;;;;;;;19.55;22.52;93618.69;2038557;70;20064;-76
2022/03/14 09:55:09;;;;;;;;;;;;;;;19.95;21.29;93616.06;2038473;70;20536;-76
2022/03/14 09:57:36;;;;;;;;;;;;;;;18.33;22.25;93609.69;2040599;70;20071;-78
2022/03/14 10:00:02;;;;;;;;;;;;;;;19.13;22.96;93614.75;2038214;70;20102;-73
2022/03/14 10:02:29;;;;;;;;;;;;;;;19.16;22.53;93609.88;2038409;70;20071;-76
2022/03/14 10:04:55;;;;;;;;;;;;;;;19.15;21.81;93612.00;2038375;70;20059;-76
2022/03/14 10:07:21;;;;;;;;;;;;;;;19.48;22.86;93611.25;2038440;70;20059;-76
2022/03/14 10:09:47;;;;;;;;;;;;;;;19.04;23.00;93615.78;2038325;70;20060;-76
2022/03/14 10:12:19;;;;;;;;;;;;;;;19.36;22.46;93607.88;2040599;70;20412;-81
2022/03/14 10:14:46;;;;;;;;;;;;;;;19.76;22.76;93600.28;2037766;70;20072;-79
2022/03/14 10:17:13;;;;;;;;;;;;;;;20.45;21.14;93604.44;2040209;70;20048;-78
2022/03/14 10:19:38;;;;;;;;;;;;;;;19.14;21.50;93604.78;2040411;70;20048;-78
2022/03/14 10:22:14;;;;;;;;;;;;;;;20.15;21.78;93598.97;2038191;70;20059;-78
2022/03/14 10:24:40;;;;;;;;;;;;;;;20.01;21.43;93596.28;2038152;70;20068;-78
2022/03/14 10:27:12;;;;;;;;;;;;;;;20.43;22.05;93601.47;2038056;70;20087;-77
2022/03/14 10:29:38;;;;;;;;;;;;;;;20.85;20.32;93596.66;2038124;70;20512;-77
2022/03/14 10:32:18;;;;;;;;;;;;;;;20.75;20.36;93610.56;2038154;70;20048;-79
2022/03/14 10:34:51;;;;;;;;;;;;;;;20.52;21.69;93603.28;2037964;70;20082;-77
2022/03/14 10:37:17;;;;;;;;;;;;;;;21.60;20.49;93606.47;2038199;70;20048;-74
2022/03/14 10:39:44;;;;;;;;;;;;;;;20.95;20.28;93599.16;2038148;70;20078;-76
2022/03/14 10:42:11;;;;;;;;;;;;;;;21.59;20.30;93608.59;2038161;70;20048;-77
2022/03/14 10:44:38;;;;;;;;;;;;;;;21.29;19.88;93600.38;2038529;70;20058;-75
2022/03/14 10:47:05;;;;;;;;;;;;;;;23.02;18.89;93596.63;2038000;70;20111;-74
2022/03/14 10:49:31;;;;;;;;;;;;;;;22.66;19.59;93598.41;2038195;70;20148;-76
2022/03/14 10:51:58;;;;;;;;;;;;;;;23.80;19.37;93598.75;2038266;70;20086;-76
2022/03/14 10:54:24;;;;;;;;;;;;;;;22.17;18.96;93594.03;2037862;70;20052;-75
2022/03/14 10:57:01;;;;;;;;;;;;;;;23.83;18.06;93603.88;2040273;70;20052;-77
2022/03/14 10:59:33;;;;;;;;;;;;;;;23.47;18.34;93600.03;2037916;70;20040;-76
2022/03/14 11:02:00;;;;;;;;;;;;;;;25.30;18.20;93595.00;2038205;70;20044;-75
2022/03/14 11:04:26;;;;;;;;;;;;;;;24.11;18.17;93599.53;2038115;70;20060;-76
2022/03/14 11:06:59;;;;;;;;;;;;;;;26.16;16.34;93603.09;2038235;70;20056;-76
2022/03/14 11:09:47;;;;;;;;;;;;;;;25.64;16.77;93597.09;2037952;70;20545;-76
2022/03/14 11:12:20;;;;;;;;;;;;;;;24.37;17.47;93591.53;2038172;70;20071;-76
2022/03/14 11:14:53;;;;;;;;;;;;;;;25.64;16.54;93594.22;2038016;70;20044;-74
2022/03/14 11:17:19;;;;;;;;;;;;;;;24.87;16.34;93591.22;2037903;70;20092;-75
2022/03/14 11:19:45;;;;;;;;;;;;;;;25.51;16.26;93590.34;2038052;70;20143;-75
2022/03/14 11:22:13;;;;;;;;;;;;;;;27.70;15.35;93580.66;2040120;70;20048;-77
2022/03/14 11:24:40;;;;;;;;;;;;;;;29.72;13.38;93587.16;2037833;70;20075;-75
2022/03/14 11:27:06;;;;;;;;;;;;;;;28.13;14.82;93586.88;2038030;70;20050;-74
2022/03/14 11:29:33;;;;;;;;;;;;;;;30.21;14.04;93590.19;2037718;70;20064;-74
2022/03/14 11:31:58;;;;;;;;;;;;;;;30.25;13.62;93587.28;2038166;70;20052;-74
2022/03/14 11:34:26;;;;;;;;;;;;;;;29.82;13.12;93587.16;2038199;70;20142;-76
2022/03/14 11:36:53;;;;;;;;;;;;;;;29.96;13.31;93578.50;2037999;70;20119;-74
2022/03/14 11:39:20;;;;;;;;;;;;;;;29.43;13.73;93569.63;2038160;70;20111;-74
2022/03/14 11:41:45;;;;;;;;;;;;;;;31.36;12.46;93580.63;2040200;70;20075;-74
2022/03/14 11:44:11;;;;;;;;;;;;;;;32.22;12.17;93577.28;2037206;70;20066;-74
2022/03/14 11:46:37;;;;;;;;;;;;;;;32.58;12.15;93576.28;2039795;70;20048;-74
2022/03/14 11:49:11;;;;;;;;;;;;;;;30.50;13.06;93567.66;2037958;70;20163;-75
2022/03/14 11:51:38;;;;;;;;;;;;;;;29.21;13.11;93561.56;2038127;70;20055;-75
2022/03/14 11:54:09;;;;;;;;;;;;;;;31.48;12.66;93573.31;2037814;70;20080;-75
2022/03/14 11:56:38;;;;;;;;;;;;;;;31.32;11.73;93569.00;2037685;70;20603;-74
2022/03/14 11:59:09;;;;;;;;;;;;;;;32.25;12.11;93567.03;2040154;70;20108;-75
2022/03/14 12:01:46;;;;;;;;;;;;;;;34.15;11.59;93556.28;2039906;70;20444;-75
2022/03/14 12:04:25;;;;;;;;;;;;;;;33.81;10.75;93557.47;2037982;70;20139;-73
2022/03/14 12:06:52;;;;;;;;;;;;;;;34.23;11.55;93561.28;2038029;70;20094;-75
2022/03/14 12:09:24;;;;;;;;;;;;;;;35.20;10.91;93558.94;2039996;70;20048;-73
2022/03/14 12:11:49;;;;;;;;;;;;;;;34.07;10.71;93548.34;2037876;70;20126;-73
2022/03/14 12:14:34;;;;;;;;;;;;;;;33.51;10.50;93549.84;2037611;70;20048;-73
2022/03/14 12:17:12;;;;;;;;;;;;;;;32.47;11.20;93545.78;2040205;70;20155;-72
2022/03/14 12:19:42;;;;;;;;;;;;;;;31.95;11.96;93538.88;2038095;70;20048;-75
2022/03/14 12:22:13;;;;;;;;;;;;;;;31.96;11.78;93542.50;2037621;70;20091;-74
2022/03/14 12:24:38;;;;;;;;;;;;;;;31.62;11.80;93538.31;2037611;70;20074;-74
2022/03/14 12:27:36;;;;;;;;;;;;;;;34.12;10.56;93537.34;2037609;70;20500;-75
2022/03/14 12:30:23;;;;;;;;;;;;;;;33.20;10.65;93529.03;2036200;70;20074;-74
2022/03/14 12:32:53;;;;;;;;;;;;;;;34.31;10.52;93529.00;2036172;70;20059;-74
2022/03/14 12:35:26;;;;;;;;;;;;;;;31.21;11.83;93529.03;2039440;70;20055;-74
2022/03/14 12:37:56;;;;;;;;;;;;;;;31.12;12.44;93522.53;2036409;70;20363;-73
2022/03/14 12:40:21;;;;;;;;;;;;;;;33.78;11.12;93526.88;2037401;70;20481;-74
2022/03/14 12:42:47;;;;;;;;;;;;;;;30.87;11.77;93518.94;2037317;70;20866;-74
2022/03/14 12:45:28;;;;;;;;;;;;;;;32.05;11.30;93511.88;2037327;70;20064;-75
2022/03/14 12:47:58;;;;;;;;;;;;;;;32.85;11.04;93514.78;2037608;70;20066;-75
2022/03/14 12:50:45;;;;;;;;;;;;;;;34.29;10.97;93520.28;2037473;70;20092;-80
2022/03/14 12:53:17;;;;;;;;;;;;;;;34.21;9.92;93506.50;2037596;70;20069;-78